This is the latest recevied weather packets stored in our database for station/object EA4IAJ-12. If no packets are shown the sender has not sent any weather packets the latest 10 day(s).
| Time | Temp. | Humidity | Pressure | Rain* | Wind** | Luminosity | Snow |
|---|---|---|---|---|---|---|---|
| 1787825179 | 19.44° C | 100% | 1015 hPa | - | - | - | - |
| 1787824290 | 20° C | 100% | 1019.1 hPa | - | - | - | - |
| 1787823390 | 19.44° C | 100% | 1016 hPa | - | - | - | - |
| 1787822489 | 18.89° C | 100% | 1013.8 hPa | - | - | - | - |
| 1787821589 | 18.33° C | 100% | 1010.7 hPa | - | - | - | - |
| 1787820688 | 18.33° C | 100% | 1010.3 hPa | - | - | - | - |
| 1787819788 | 18.89° C | 100% | 1014.2 hPa | - | - | - | - |
| 1787818887 | 19.44° C | 100% | 1015.7 hPa | - | - | - | - |
| 1787817986 | 17.78° C | 100% | 1008.8 hPa | - | - | - | - |
| 1787817086 | 17.78° C | 100% | 1007.7 hPa | - | - | - | - |
| 1787816186 | 17.78° C | 100% | 1007.6 hPa | - | - | - | - |
| 1787815285 | 17.22° C | 100% | 1006.5 hPa | - | - | - | - |
| 1787814385 | 17.22° C | 100% | 1004.4 hPa | - | - | - | - |
| 1787813527 | 16.67° C | 100% | 1002 hPa | - | - | - | - |
| 1787813484 | 16.67° C | 100% | 1002 hPa | - | - | - | - |
| 1787812584 | 16.11° C | 100% | 999.2 hPa | - | - | - | - |
| 1787811684 | 16.11° C | 100% | 998.9 hPa | - | - | - | - |
| 1787810783 | 16.11° C | 100% | 998.5 hPa | - | - | - | - |
| 1787809882 | 16.11° C | 100% | 999.3 hPa | - | - | - | - |
| 1787809114 | 17.22° C | 100% | 1003.7 hPa | - | - | - | - |
| 1787808982 | 17.22° C | 100% | 1003.7 hPa | - | - | - | - |
| 1787808081 | 17.22° C | 100% | 1003.6 hPa | - | - | - | - |
| 1787807181 | 17.22° C | 100% | 1003.2 hPa | - | - | - | - |
| 1787806280 | 16.67° C | 100% | 1001.2 hPa | - | - | - | - |
| 1787805522 | 16.67° C | 100% | 1000.8 hPa | - | - | - | - |
* Rain since midnight (hover to see other rain measurements)
** Current wind speed in m/s (hover to see current wind gust speed)